Terminal Aerodrome Forecast
Issued by NWS Cleveland, OH

Home | Current Version | Previous Version | Text Only | Print | Product List | Glossary Off
Versions: 1 2 3 4 5 6 7 8 9 10 11 12 13 14 15 16 17 18 19 20 21 22 23

000
FTUS41 KCLE 251100
TAFMFD
TAF
KMFD 251133Z 2512/2612 27008KT P6SM SCT035
      TEMPO 2512/2514 BKN035
     FM251400 33008KT P6SM SCT250
     FM251900 36004KT P6SM BKN250
     FM260000 04006KT P6SM OVC100=

USA.gov is the U.S. government's official web portal to all federal, state and local government web resources and services.